createdAt,value
2018-07-16T00:01:46.642Z,59.50
2018-07-16T00:04:16.738Z,59.60
2018-07-16T00:06:46.841Z,59.60
2018-07-16T00:09:16.941Z,59.40
2018-07-16T00:11:47.058Z,59.70
2018-07-16T00:14:17.165Z,60.40
2018-07-16T00:16:47.301Z,60.20
2018-07-16T00:19:17.570Z,60.40
2018-07-16T00:21:47.670Z,60.60
2018-07-16T00:24:17.777Z,61.10
2018-07-16T00:26:47.846Z,60.30
2018-07-16T00:29:17.954Z,60.80
2018-07-16T00:31:48.265Z,60.60
2018-07-16T00:34:18.511Z,61.70
2018-07-16T00:36:49.555Z,61.40
2018-07-16T00:39:20.493Z,63.20
2018-07-16T00:41:51.865Z,63.50
2018-07-16T00:44:22.614Z,62.70
2018-07-16T00:46:52.854Z,62.20
2018-07-16T00:49:22.954Z,63.10
2018-07-16T00:51:53.054Z,62.90
2018-07-16T00:54:23.168Z,63.30
2018-07-16T00:56:53.277Z,62.80
2018-07-16T00:59:23.350Z,62.80
2018-07-16T01:01:53.497Z,62.50
2018-07-16T01:04:23.582Z,63.50
2018-07-16T01:06:53.675Z,63.30
2018-07-16T01:09:24.059Z,63.30
2018-07-16T01:14:23.891Z,63.00
2018-07-16T01:16:54.014Z,62.80
2018-07-16T01:19:24.471Z,63.00
2018-07-16T01:21:54.574Z,63.40
2018-07-16T01:24:24.684Z,63.50
2018-07-16T01:26:54.785Z,64.00
2018-07-16T01:29:24.950Z,64.50
2018-07-16T01:31:55.070Z,64.30
2018-07-16T01:34:25.169Z,64.40
2018-07-16T01:36:55.277Z,64.30
2018-07-16T01:39:25.723Z,64.40
2018-07-16T01:41:56.021Z,65.10
2018-07-16T01:44:26.094Z,63.90
2018-07-16T01:46:56.204Z,64.00
2018-07-16T01:49:26.509Z,64.10
2018-07-16T01:51:56.610Z,64.00
2018-07-16T01:54:26.721Z,63.70
2018-07-16T01:56:57.172Z,63.60
2018-07-16T01:59:27.273Z,63.40
2018-07-16T02:01:57.392Z,63.60
2018-07-16T02:04:27.494Z,64.00
2018-07-16T02:06:57.578Z,64.70
2018-07-16T02:09:28.022Z,63.60
2018-07-16T02:11:58.122Z,63.60
2018-07-16T02:14:28.221Z,63.80
2018-07-16T02:16:58.705Z,64.00
2018-07-16T02:19:28.802Z,64.20
2018-07-16T02:21:59.234Z,64.50
2018-07-16T02:24:29.343Z,65.10
2018-07-16T02:26:59.411Z,65.10
2018-07-16T02:29:29.526Z,64.90
2018-07-16T02:31:59.622Z,64.60
2018-07-16T02:34:29.733Z,65.00
2018-07-16T02:37:00.008Z,65.10
2018-07-16T02:39:30.293Z,65.10
2018-07-16T02:42:00.666Z,64.70
2018-07-16T02:44:30.787Z,64.80
2018-07-16T02:47:01.062Z,64.90
2018-07-16T02:49:31.182Z,65.10
2018-07-16T02:52:01.367Z,65.80
2018-07-16T02:54:31.501Z,66.00
2018-07-16T02:57:01.613Z,65.60
2018-07-16T02:59:32.265Z,66.30
2018-07-16T03:02:02.622Z,66.00
2018-07-16T03:04:32.726Z,65.00
2018-07-16T03:07:02.836Z,66.00
2018-07-16T03:09:33.102Z,65.10
2018-07-16T03:12:03.270Z,64.70
2018-07-16T03:14:33.342Z,65.30
2018-07-16T03:17:03.482Z,65.70
2018-07-16T03:19:33.737Z,65.30
2018-07-16T03:22:04.197Z,65.10
2018-07-16T03:24:34.399Z,65.70
2018-07-16T03:27:11.331Z,66.00
2018-07-16T03:29:41.411Z,66.80
2018-07-16T03:32:11.527Z,67.80
2018-07-16T03:34:41.606Z,67.40
2018-07-16T03:37:12.054Z,67.60
2018-07-16T03:39:42.178Z,67.20
2018-07-16T03:42:12.674Z,68.00
2018-07-16T03:44:42.757Z,68.80
2018-07-16T03:47:12.867Z,67.80
2018-07-16T03:49:42.989Z,68.50
2018-07-16T03:52:13.130Z,68.40
2018-07-16T03:54:43.250Z,68.30
2018-07-16T03:57:14.026Z,68.20
2018-07-16T03:59:44.134Z,68.30
2018-07-16T04:02:14.282Z,69.00
2018-07-16T04:04:44.398Z,67.80
2018-07-16T04:07:14.478Z,68.00
2018-07-16T04:09:44.602Z,68.30
2018-07-16T04:12:15.038Z,67.90
2018-07-16T04:14:45.134Z,68.50
2018-07-16T04:17:15.245Z,69.10
2018-07-16T04:19:45.406Z,69.40
2018-07-16T04:22:15.477Z,68.40
2018-07-16T04:24:45.594Z,68.50
2018-07-16T04:27:15.670Z,70.50
2018-07-16T04:29:45.782Z,69.40
2018-07-16T04:32:16.209Z,69.00
2018-07-16T04:34:46.466Z,69.10
2018-07-16T04:37:16.557Z,69.80
2018-07-16T04:39:53.102Z,69.60
2018-07-16T04:42:23.394Z,69.10
2018-07-16T04:44:53.508Z,70.40
2018-07-16T04:47:23.613Z,69.40
2018-07-16T04:49:53.823Z,69.00
2018-07-16T04:52:24.106Z,69.20
2018-07-16T04:54:54.237Z,68.70
2018-07-16T04:57:24.354Z,68.60
2018-07-16T04:59:54.434Z,70.10
2018-07-16T05:02:24.546Z,69.50
2018-07-16T05:04:55.296Z,69.00
2018-07-16T05:07:25.377Z,68.80
2018-07-16T05:09:55.474Z,68.80
2018-07-16T05:12:25.593Z,68.50
2018-07-16T05:14:55.709Z,68.30
2018-07-16T05:17:25.857Z,68.50
2018-07-16T05:19:56.101Z,68.20
2018-07-16T05:22:26.214Z,67.90
2018-07-16T05:24:56.507Z,67.20
2018-07-16T05:27:26.626Z,67.10
2018-07-16T05:29:56.729Z,66.90
2018-07-16T05:32:26.997Z,66.90
2018-07-16T05:34:57.120Z,66.80
2018-07-16T05:37:27.219Z,66.50
2018-07-16T05:39:57.530Z,66.10
2018-07-16T05:42:27.698Z,67.00
2018-07-16T05:44:57.813Z,66.90
2018-07-16T05:47:28.250Z,65.70
2018-07-16T05:49:58.361Z,64.30
2018-07-16T05:52:28.610Z,64.20
2018-07-16T05:54:58.722Z,63.90
2018-07-16T05:57:28.815Z,62.90
2018-07-16T05:59:58.933Z,61.80
2018-07-16T06:02:29.049Z,61.40
2018-07-16T06:04:59.177Z,62.20
2018-07-16T06:07:29.262Z,59.90
2018-07-16T06:09:59.391Z,59.20
2018-07-16T06:12:29.481Z,59.10
2018-07-16T06:14:59.630Z,58.70
2018-07-16T06:17:29.759Z,58.00
2018-07-16T06:19:59.853Z,58.10
2018-07-16T06:22:29.963Z,57.30
2018-07-16T06:25:00.073Z,57.40
2018-07-16T06:27:30.706Z,57.10
2018-07-16T06:30:00.801Z,58.40
2018-07-16T06:32:31.227Z,56.90
2018-07-16T06:35:01.210Z,57.20
2018-07-16T06:37:31.362Z,57.40
2018-07-16T06:40:01.557Z,56.30
2018-07-16T06:42:31.761Z,55.50
2018-07-16T06:45:01.870Z,55.80
2018-07-16T06:47:31.969Z,55.50
2018-07-16T06:50:02.097Z,54.10
2018-07-16T06:52:32.766Z,54.30
2018-07-16T06:55:03.281Z,53.40
2018-07-16T06:57:33.765Z,53.10
2018-07-16T07:00:03.929Z,51.40
2018-07-16T07:02:34.086Z,51.30
2018-07-16T07:05:04.215Z,51.60
2018-07-16T07:07:34.326Z,51.80
2018-07-16T07:10:04.627Z,52.50
2018-07-16T07:12:34.894Z,51.40
2018-07-16T07:15:05.417Z,50.60
2018-07-16T07:17:35.575Z,51.20
2018-07-16T07:20:05.913Z,51.50
2018-07-16T07:22:36.018Z,51.70
2018-07-16T07:25:06.638Z,52.00
2018-07-16T07:27:36.750Z,51.10
2018-07-16T07:30:06.906Z,51.30
2018-07-16T07:32:37.013Z,51.30
2018-07-16T07:35:07.187Z,51.60
2018-07-16T07:37:37.430Z,51.80
2018-07-16T07:40:07.554Z,51.00
2018-07-16T07:42:37.656Z,50.70
2018-07-16T07:45:08.463Z,51.50
2018-07-16T07:47:38.594Z,50.90
2018-07-16T07:50:09.114Z,51.60
2018-07-16T07:52:39.265Z,51.00
2018-07-16T07:55:09.697Z,51.50
2018-07-16T07:57:43.028Z,51.60
2018-07-16T08:00:13.694Z,50.00
2018-07-16T08:02:43.506Z,50.00
2018-07-16T08:05:13.342Z,50.10
2018-07-16T08:07:43.535Z,51.10
2018-07-16T08:10:13.346Z,50.70
2018-07-16T08:12:43.732Z,49.40
2018-07-16T08:15:14.230Z,49.90
2018-07-16T08:17:44.645Z,50.70
2018-07-16T08:20:14.667Z,50.40
2018-07-16T08:22:44.726Z,49.70
2018-07-16T08:25:15.425Z,48.00
2018-07-16T08:27:45.814Z,48.50
2018-07-16T08:30:15.854Z,49.10
2018-07-16T08:32:45.958Z,48.40
2018-07-16T08:35:16.323Z,48.70
2018-07-16T08:37:46.342Z,49.10
2018-07-16T08:40:16.366Z,48.50
2018-07-16T08:42:46.414Z,48.40
2018-07-16T08:45:16.442Z,48.90
2018-07-16T08:47:46.870Z,47.60
2018-07-16T08:50:16.717Z,48.00
2018-07-16T08:52:46.573Z,48.00
2018-07-16T08:55:16.545Z,48.10
2018-07-16T08:57:46.402Z,46.60
2018-07-16T09:00:16.294Z,47.80
2018-07-16T09:02:46.105Z,46.90
2018-07-16T09:05:15.932Z,47.50
2018-07-16T09:07:45.982Z,47.30
2018-07-16T09:10:15.797Z,46.10
2018-07-16T09:12:45.654Z,45.50
2018-07-16T09:15:16.042Z,45.80
2018-07-16T09:17:46.218Z,45.40
2018-07-16T09:20:16.074Z,45.40
2018-07-16T09:22:46.246Z,44.60
2018-07-16T09:25:16.114Z,45.50
2018-07-16T09:27:45.950Z,44.90
2018-07-16T09:30:15.739Z,44.90
2018-07-16T09:32:46.340Z,44.30
2018-07-16T09:35:16.302Z,44.80
2018-07-16T09:37:46.127Z,44.10
2018-07-16T09:40:15.946Z,44.40
2018-07-16T09:42:45.942Z,43.60
2018-07-16T09:45:15.734Z,44.10
2018-07-16T09:47:45.529Z,44.30
2018-07-16T09:50:15.374Z,42.10
2018-07-16T09:52:45.186Z,42.80
2018-07-16T09:55:15.054Z,43.20
2018-07-16T09:57:44.865Z,43.20
2018-07-16T10:00:19.018Z,44.00
2018-07-16T10:02:48.822Z,42.60
2018-07-16T10:05:19.006Z,44.30
2018-07-16T10:07:48.891Z,41.50
2018-07-16T10:10:18.951Z,41.70
2018-07-16T10:12:48.830Z,41.10
2018-07-16T10:15:18.888Z,41.30
2018-07-16T10:17:48.680Z,41.60
2018-07-16T10:20:18.600Z,39.80
2018-07-16T10:22:48.550Z,39.60
2018-07-16T10:25:18.356Z,40.20
2018-07-16T10:27:48.182Z,38.60
2018-07-16T10:30:18.000Z,39.70
2018-07-16T10:32:47.809Z,40.00
2018-07-16T10:35:17.647Z,38.70
2018-07-16T10:37:47.490Z,39.20
2018-07-16T10:40:17.298Z,37.90
2018-07-16T10:42:47.125Z,38.60
2018-07-16T10:45:16.955Z,38.20
2018-07-16T10:47:46.794Z,37.40
2018-07-16T10:50:16.629Z,39.00
2018-07-16T10:52:46.446Z,38.50
2018-07-16T10:55:16.694Z,36.80
2018-07-16T10:57:46.654Z,35.80
2018-07-16T11:00:16.818Z,37.60
2018-07-16T11:02:46.974Z,38.10
2018-07-16T11:05:16.812Z,37.00
2018-07-16T11:07:46.818Z,37.30
2018-07-16T11:10:16.641Z,36.90
2018-07-16T11:12:46.477Z,35.50
2018-07-16T11:15:16.335Z,36.60
2018-07-16T11:17:46.130Z,35.70
2018-07-16T11:20:15.954Z,36.20
2018-07-16T11:22:45.806Z,37.00
2018-07-16T11:25:15.612Z,36.10
2018-07-16T11:27:45.437Z,35.80
2018-07-16T11:30:15.242Z,34.50
2018-07-16T11:32:45.058Z,32.20
2018-07-16T11:35:14.909Z,33.60
2018-07-16T11:37:45.238Z,33.20
2018-07-16T11:40:15.030Z,33.10
2018-07-16T11:42:44.894Z,31.70
2018-07-16T11:45:14.722Z,32.30
2018-07-16T11:47:44.518Z,32.00
2018-07-16T11:50:14.691Z,30.20
2018-07-16T11:52:44.665Z,30.20
2018-07-16T11:55:14.598Z,30.10
2018-07-16T11:57:44.400Z,30.80
2018-07-16T12:00:14.236Z,30.00
2018-07-16T12:02:44.261Z,29.90
2018-07-16T12:05:14.474Z,28.50
2018-07-16T12:07:44.828Z,26.70
2018-07-16T12:10:14.654Z,30.40
2018-07-16T12:12:44.676Z,29.30
2018-07-16T12:15:14.485Z,28.70
2018-07-16T12:17:44.348Z,28.30
2018-07-16T12:20:14.145Z,29.60
2018-07-16T12:22:44.317Z,29.40
2018-07-16T12:25:14.122Z,26.60
2018-07-16T12:27:44.302Z,26.00
2018-07-16T12:30:14.310Z,24.80
2018-07-16T12:32:44.184Z,25.90
2018-07-16T12:35:14.126Z,27.00
2018-07-16T12:37:43.957Z,25.10
2018-07-16T12:40:13.786Z,26.40
2018-07-16T12:42:43.598Z,27.30
2018-07-16T12:45:13.426Z,27.60
2018-07-16T12:47:43.210Z,28.50
2018-07-16T12:50:13.035Z,26.10
2018-07-16T12:52:42.870Z,26.80
2018-07-16T12:55:12.698Z,25.30
2018-07-16T12:57:42.522Z,26.50
2018-07-16T13:00:12.710Z,26.80
2018-07-16T13:02:42.529Z,26.80
2018-07-16T13:05:12.410Z,26.70
2018-07-16T13:07:42.226Z,25.50
2018-07-16T13:10:12.050Z,26.70
2018-07-16T13:12:41.866Z,26.30
2018-07-16T13:15:11.670Z,25.60
2018-07-16T13:17:41.524Z,24.60
2018-07-16T13:20:11.342Z,24.30
2018-07-16T13:22:41.170Z,24.70
2018-07-16T13:25:10.980Z,25.10
2018-07-16T13:27:40.797Z,24.90
2018-07-16T13:30:10.590Z,25.90
2018-07-16T13:32:40.405Z,26.20
2018-07-16T13:35:10.250Z,25.40
2018-07-16T13:37:40.058Z,25.70
2018-07-16T13:40:09.894Z,24.30
2018-07-16T13:42:39.718Z,26.30
2018-07-16T13:45:09.566Z,26.10
2018-07-16T13:47:39.371Z,26.80
2018-07-16T13:50:09.186Z,25.30
2018-07-16T13:52:39.056Z,25.60
2018-07-16T13:55:09.398Z,25.00
2018-07-16T13:57:39.213Z,25.50
2018-07-16T14:00:09.037Z,25.50
2018-07-16T14:02:38.838Z,24.80
2018-07-16T14:05:09.137Z,25.30
2018-07-16T14:07:38.958Z,25.60
2018-07-16T14:10:08.798Z,25.20
2018-07-16T14:12:38.820Z,26.00
2018-07-16T14:15:08.645Z,25.60
2018-07-16T14:17:38.693Z,26.00
2018-07-16T14:20:08.510Z,26.80
2018-07-16T14:22:38.346Z,26.00
2018-07-16T14:25:08.311Z,25.40
2018-07-16T14:27:38.335Z,24.90
2018-07-16T14:30:08.170Z,25.50
2018-07-16T14:32:38.357Z,25.80
2018-07-16T14:35:08.221Z,25.60
2018-07-16T14:37:38.045Z,24.90
2018-07-16T14:40:07.927Z,25.90
2018-07-16T14:42:37.883Z,26.10
2018-07-16T14:45:08.065Z,25.00
2018-07-16T14:47:37.934Z,25.50
2018-07-16T14:50:08.298Z,24.90
2018-07-16T14:52:38.126Z,24.50
2018-07-16T14:55:07.967Z,24.50
2018-07-16T14:57:37.759Z,25.00
2018-07-16T15:00:07.598Z,25.30
2018-07-16T15:02:37.389Z,25.30
2018-07-16T15:05:07.227Z,24.40
2018-07-16T15:07:37.025Z,25.50
2018-07-16T15:10:07.198Z,24.70
2018-07-16T15:12:36.997Z,23.60
2018-07-16T15:15:06.856Z,24.00
2018-07-16T15:17:36.746Z,23.00
2018-07-16T15:20:07.039Z,24.10
2018-07-16T15:22:36.902Z,24.40
2018-07-16T15:25:07.286Z,24.50
2018-07-16T15:27:37.122Z,23.90
2018-07-16T15:30:07.301Z,24.30
2018-07-16T15:32:37.436Z,22.80
2018-07-16T15:35:07.574Z,24.30
2018-07-16T15:37:37.410Z,24.10
2018-07-16T15:40:07.217Z,25.10
2018-07-16T15:42:37.037Z,26.10
2018-07-16T15:45:06.918Z,25.80
2018-07-16T15:47:36.721Z,25.20
2018-07-16T15:50:06.546Z,24.80
2018-07-16T15:52:36.392Z,24.30
2018-07-16T15:55:06.586Z,24.80
2018-07-16T15:57:36.432Z,25.50
2018-07-16T16:00:06.485Z,24.30
2018-07-16T16:02:36.409Z,25.60
2018-07-16T16:05:06.257Z,26.00
2018-07-16T16:07:36.061Z,24.90
2018-07-16T16:10:05.938Z,25.90
2018-07-16T16:12:35.751Z,25.50
2018-07-16T16:15:05.580Z,26.20
2018-07-16T16:17:35.395Z,24.90
2018-07-16T16:20:05.435Z,25.50
2018-07-16T16:22:35.270Z,25.30
2018-07-16T16:25:05.069Z,25.30
2018-07-16T16:30:04.982Z,25.00
2018-07-16T16:32:34.809Z,24.60
2018-07-16T16:35:05.052Z,25.40
2018-07-16T16:37:34.902Z,24.20
2018-07-16T16:40:05.366Z,25.10
2018-07-16T16:42:35.225Z,23.90
2018-07-16T16:45:05.078Z,24.50
2018-07-16T16:47:35.247Z,23.70
2018-07-16T16:50:05.441Z,24.00
2018-07-16T16:52:35.241Z,25.60
2018-07-16T16:55:05.062Z,25.20
2018-07-16T16:57:35.238Z,25.20
2018-07-16T17:00:05.401Z,25.20
2018-07-16T17:02:35.406Z,25.60
2018-07-16T17:05:05.537Z,24.60
2018-07-16T17:07:35.355Z,24.80
2018-07-16T17:10:05.173Z,25.50
2018-07-16T17:12:35.025Z,24.50
2018-07-16T17:15:04.891Z,24.30
2018-07-16T17:17:34.725Z,25.50
2018-07-16T17:20:04.950Z,25.10
2018-07-16T17:22:34.797Z,24.50
2018-07-16T17:25:04.707Z,24.30
2018-07-16T17:27:34.518Z,24.40
2018-07-16T17:30:04.394Z,24.80
2018-07-16T17:32:34.198Z,25.00
2018-07-16T17:35:04.074Z,25.50
2018-07-16T17:37:34.079Z,25.80
2018-07-16T17:40:03.960Z,25.40
2018-07-16T17:42:33.750Z,25.30
2018-07-16T17:45:03.648Z,25.30
2018-07-16T17:47:33.457Z,25.50
2018-07-16T17:50:03.634Z,25.70
2018-07-16T17:52:33.462Z,25.40
2018-07-16T17:55:03.659Z,24.80
2018-07-16T17:57:33.485Z,25.50
2018-07-16T18:00:03.646Z,25.40
2018-07-16T18:02:33.575Z,26.30
2018-07-16T18:05:03.516Z,25.40
2018-07-16T18:07:33.685Z,25.60
2018-07-16T18:10:04.391Z,25.80
2018-07-16T18:12:34.716Z,26.00
2018-07-16T18:15:04.862Z,27.40
2018-07-16T18:17:34.819Z,26.40
2018-07-16T18:20:05.272Z,25.60
2018-07-16T18:22:35.237Z,25.50
2018-07-16T18:25:05.241Z,26.00
2018-07-16T18:27:36.339Z,26.40
2018-07-16T18:30:06.574Z,26.60
2018-07-16T18:32:36.909Z,27.30
2018-07-16T18:35:07.072Z,27.80
2018-07-16T18:37:36.899Z,27.50
2018-07-16T18:40:07.982Z,27.60
2018-07-16T18:42:37.792Z,28.50
2018-07-16T18:45:08.031Z,29.30
2018-07-16T18:47:37.858Z,28.60
2018-07-16T18:50:09.642Z,28.40
2018-07-16T18:52:39.522Z,28.70
2018-07-16T18:55:09.386Z,29.40
2018-07-16T18:57:39.180Z,29.80
2018-07-16T19:00:09.892Z,31.00
2018-07-16T19:02:39.702Z,30.60
2018-07-16T19:05:09.584Z,31.50
2018-07-16T19:07:39.729Z,31.50
2018-07-16T19:10:09.626Z,32.60
2018-07-16T19:12:39.482Z,32.20
2018-07-16T19:15:13.816Z,32.80
2018-07-16T19:17:44.087Z,32.80
2018-07-16T19:20:13.873Z,32.40
2018-07-16T19:22:43.694Z,32.90
2018-07-16T19:25:13.509Z,33.20
2018-07-16T19:27:43.706Z,33.30
2018-07-16T19:30:13.939Z,34.50
2018-07-16T19:32:44.215Z,33.90
2018-07-16T19:35:14.208Z,33.70
2018-07-16T19:37:44.066Z,33.60
2018-07-16T19:40:13.886Z,34.80
2018-07-16T19:42:44.081Z,35.50
2018-07-16T19:45:14.274Z,36.20
2018-07-16T19:47:44.118Z,36.80
2018-07-16T19:50:13.972Z,36.20
2018-07-16T19:52:44.342Z,35.30
2018-07-16T19:55:14.232Z,37.90
2018-07-16T19:57:44.281Z,37.60
2018-07-16T20:00:14.269Z,35.40
2018-07-16T20:02:44.365Z,37.60
2018-07-16T20:05:14.342Z,37.90
2018-07-16T20:07:44.198Z,38.70
2018-07-16T20:10:14.242Z,39.50
2018-07-16T20:12:44.062Z,40.70
2018-07-16T20:15:18.101Z,40.90
2018-07-16T20:17:48.158Z,41.20
2018-07-16T20:20:18.127Z,41.90
2018-07-16T20:22:48.049Z,42.00
2018-07-16T20:25:17.902Z,42.40
2018-07-16T20:27:47.706Z,43.00
2018-07-16T20:30:17.749Z,42.30
2018-07-16T20:32:47.606Z,42.90
2018-07-16T20:35:17.808Z,42.40
2018-07-16T20:37:47.610Z,43.10
2018-07-16T20:40:20.134Z,43.10
2018-07-16T20:42:49.974Z,43.80
2018-07-16T20:45:19.778Z,44.10
2018-07-16T20:47:49.600Z,43.80
2018-07-16T20:50:19.893Z,44.10
2018-07-16T20:52:49.797Z,44.70
2018-07-16T20:55:19.594Z,44.40
2018-07-16T20:57:49.776Z,44.10
2018-07-16T21:00:19.797Z,44.90
2018-07-16T21:02:49.676Z,45.90
2018-07-16T21:05:19.868Z,45.80
2018-07-16T21:07:49.819Z,45.30
2018-07-16T21:10:19.849Z,45.70
2018-07-16T21:12:49.699Z,45.30
2018-07-16T21:15:19.653Z,46.40
2018-07-16T21:17:49.438Z,46.30
2018-07-16T21:20:19.233Z,46.40
2018-07-16T21:22:49.081Z,46.50
2018-07-16T21:25:19.325Z,47.10
2018-07-16T21:27:49.678Z,47.60
2018-07-16T21:30:19.474Z,49.30
2018-07-16T21:32:49.326Z,49.60
2018-07-16T21:35:19.126Z,48.80
2018-07-16T21:37:48.961Z,48.70
2018-07-16T21:40:18.995Z,49.10
2018-07-16T21:42:49.987Z,49.40
2018-07-16T21:45:19.895Z,49.80
2018-07-16T21:47:50.452Z,49.40
2018-07-16T21:50:20.606Z,48.70
2018-07-16T21:52:50.746Z,49.00
2018-07-16T21:55:20.576Z,49.10
2018-07-16T21:57:50.369Z,48.80
2018-07-16T22:00:29.523Z,49.10
2018-07-16T22:03:00.521Z,49.00
2018-07-16T22:05:30.666Z,49.40
2018-07-16T22:08:00.662Z,49.30
2018-07-16T22:10:30.859Z,49.70
2018-07-16T22:13:01.006Z,49.00
2018-07-16T22:15:31.267Z,49.10
2018-07-16T22:18:01.091Z,48.50
2018-07-16T22:20:30.973Z,48.10
2018-07-16T22:23:00.810Z,48.40
2018-07-16T22:25:30.933Z,48.60
2018-07-16T22:28:01.141Z,48.60
2018-07-16T22:30:30.962Z,49.10
2018-07-16T22:33:00.790Z,49.20
2018-07-16T22:35:31.250Z,49.10
2018-07-16T22:38:01.705Z,49.30
2018-07-16T22:40:31.513Z,49.10
2018-07-16T22:43:01.654Z,49.10
2018-07-16T22:45:31.762Z,49.30
2018-07-16T22:48:01.886Z,49.30
2018-07-16T22:50:31.681Z,49.10
2018-07-16T22:53:02.224Z,49.10
2018-07-16T22:55:32.031Z,49.00
2018-07-16T22:58:02.134Z,49.30
2018-07-16T23:00:32.422Z,49.40
2018-07-16T23:03:02.522Z,49.30
2018-07-16T23:05:32.627Z,49.70
2018-07-16T23:08:02.791Z,50.20
2018-07-16T23:10:32.898Z,49.50
2018-07-16T23:13:03.333Z,49.90
2018-07-16T23:15:33.790Z,49.90
2018-07-16T23:18:04.018Z,50.90
2018-07-16T23:20:34.094Z,50.50
2018-07-16T23:23:04.929Z,50.20
2018-07-16T23:25:35.001Z,50.50
2018-07-16T23:28:05.544Z,50.10
2018-07-16T23:30:35.654Z,50.90
2018-07-16T23:33:05.737Z,51.60
2018-07-16T23:35:35.846Z,51.40
2018-07-16T23:38:06.292Z,50.70
2018-07-16T23:40:36.450Z,50.60
2018-07-16T23:43:06.545Z,50.80
2018-07-16T23:45:36.646Z,51.30
2018-07-16T23:48:06.748Z,51.40
2018-07-16T23:50:37.557Z,51.40
2018-07-16T23:53:07.646Z,51.70
2018-07-16T23:55:37.805Z,51.50
2018-07-16T23:58:08.091Z,51.50
